Flight Track Log - Related Links

Times and Time Zones

All times are in EDT time to prevent confusion due to time zone crossing. See the N690TW flight status page for this flight to view local times or setup timezone preferences in your user account.

Time Position Orientation Groundspeed Altitude Reporting Facility
EDT Latitude Longitude Course Direction KTS MPH feet Rate Location/Type
Wed 10:23:03 AM 39.9500 -105.1333 254° West 170 196 7,400  Level Denver TRACON
Wed 10:24:04 AM 40.0000 -105.1333 360° North 160 184 9,700 2,083 Climbing Denver TRACON
Wed 10:25:04 AM 40.0333 -105.1667 323° Northwest 158 182 11,600 1,746 Climbing Denver TRACON
Wed 10:26:18 AM 40.0008 -105.2289 236° Southwest 195 224 13,600 1,676 Climbing Denver Center
Wed 10:27:20 AM 39.9639 -105.2833 228° Southwest 199 229 15,400 1,721 Climbing Denver Center
Wed 10:28:00 AM 39.7922 -105.6565 254° West  Level Estimated
Wed 10:28:20 AM 39.9222 -105.3450 229° Southwest 208 239 17,100  Level Denver Center
Wed 10:29:23 AM 39.8797 -105.4064 228° Southwest 224 258 18,200 1,258 Climbing Denver Center
Wed 10:30:24 AM 39.8381 -105.4753 232° Southwest 239 275 19,700 1,452 Climbing Denver Center
Wed 10:31:27 AM 39.8153 -105.5608 251° West 247 284 21,200 1,392 Climbing Denver Center
Wed 10:32:29 AM 39.7925 -105.6447 251° West 245 282 22,600 1,415 Climbing Denver Center
Wed 10:33:30 AM 39.7669 -105.7328 249° West 254 292 24,100 1,377 Climbing Denver Center
Wed 10:34:31 AM 39.7428 -105.8225 251° West 257 296 25,400 912 Climbing Denver Center
Wed 10:35:35 AM 39.7117 -105.9375 251° West 282 325 26,000 286 Climbing Denver Center
Wed 10:36:37 AM 39.6808 -106.0447 250° West 312 359 26,000  Level Denver Center
Wed 10:37:39 AM 39.6503 -106.1558 250° West 325 374 26,000  Level Denver Center
Wed 10:38:39 AM 39.6172 -106.2739 250° West 328 377 26,000  Level Denver Center
Wed 10:39:43 AM 39.5919 -106.3639 250° West 329 379 26,000  Level Denver Center
Wed 10:40:43 AM 39.5536 -106.4983 250° West 330 380 26,000  Level Denver Center
Wed 10:41:47 AM 39.5178 -106.6258 250° West 330 380 26,000  Level Denver Center
Wed 10:42:48 AM 39.4867 -106.7331 249° West 331 381 26,000  Level Denver Center
Wed 10:43:48 AM 39.4506 -106.8578 249° West 331 381 26,000  Level Denver Center
Wed 10:44:52 AM 39.4244 -106.9686 253° West 334 384 26,000  Level Denver Center
Wed 10:45:52 AM 39.4044 -107.0794 257° West 334 384 26,000  Level Denver Center
Wed 10:46:57 AM 39.3792 -107.2100 256° West 334 384 26,000  Level Denver Center
Wed 10:47:58 AM 39.3578 -107.3225 256° West 334 384 26,000  Level Denver Center
Wed 10:49:01 AM 39.3308 -107.4519 255° West 335 386 26,000 -240 Level Denver Center
Wed 10:50:03 AM 39.3092 -107.5656 256° West 337 388 25,500 -581 Descending Denver Center
Wed 10:51:05 AM 39.2853 -107.6922 256° West 330 380 24,800 -829 Descending Denver Center
Wed 10:52:06 AM 39.2633 -107.8006 255° West 326 375 23,800 -1,548 Descending Denver Center
Wed 10:53:09 AM 39.2378 -107.9342 256° West 338 389 21,600 -2,341 Descending Denver Center
Wed 10:54:09 AM 39.2242 -108.0522 262° West 334 384 19,000 -2,565 Descending Denver Center
Wed 10:55:13 AM 39.2083 -108.1764 261° West 327 376 16,300 -2,496 Descending Denver Center
Wed 10:56:14 AM 39.1961 -108.2806 261° West 298 343 13,800 -2,488 Descending Denver Center
Wed 10:57:16 AM 39.1769 -108.3753 255° West 267 307 11,200 -2,516 Descending Denver Center
Wed 10:58:18 AM 39.1550 -108.4592 251° West 236 272 8,600 -2,016 Descending Denver Center
Wed 10:59:21 AM 39.1778 -108.5353 291° West 216 249 7,000 -1,355 Descending Denver Center
Wed 11:00:22 AM 39.1536 -108.5686 227° Southwest 173 199 5,800 -1,056 Descending Denver Center
Wed 11:01:26 AM 39.1325 -108.5414 135° Southeast 125 144 4,800 -938 Descending Denver Center
Wed 11:03:00 AM 39.1224 -108.5267 255° West  Level Estimated
Wed 11:10:00 AM 39.1224 -108.5267 90° East  Level Estimated
Wed 11:11:00 AM 39.1224 -108.5267 90° East  Level Estimated

Login

Don't have an account? Register now (free) for customized features, flight alerts, and more!